createdAt,value
2023-03-10T00:01:23.416Z,9.79
2023-03-10T00:03:52.135Z,9.90
2023-03-10T00:06:22.412Z,10.09
2023-03-10T00:08:51.465Z,9.91
2023-03-10T00:11:21.952Z,9.97
2023-03-10T00:13:50.846Z,9.93
2023-03-10T00:16:23.429Z,10.03
2023-03-10T00:18:53.479Z,9.96
2023-03-10T00:21:24.600Z,9.80
2023-03-10T00:23:53.727Z,9.74
2023-03-10T00:26:26.241Z,9.62
2023-03-10T00:28:55.621Z,9.61
2023-03-10T00:31:26.605Z,9.81
2023-03-10T00:33:57.556Z,9.57
2023-03-10T00:36:27.610Z,9.63
2023-03-10T00:38:57.917Z,9.46
2023-03-10T00:41:30.836Z,9.28
2023-03-10T00:44:00.182Z,9.38
2023-03-10T00:46:30.022Z,9.21
2023-03-10T00:48:58.925Z,9.12
2023-03-10T00:51:28.104Z,9.25
2023-03-10T00:53:56.555Z,9.25
2023-03-10T00:56:27.615Z,9.13
2023-03-10T00:59:00.402Z,9.07
2023-03-10T01:01:31.180Z,9.20
2023-03-10T01:04:02.919Z,9.06
2023-03-10T01:06:32.257Z,9.27
2023-03-10T01:09:03.197Z,9.12
2023-03-10T01:11:33.227Z,9.15
2023-03-10T01:14:05.926Z,9.16
2023-03-10T01:16:35.368Z,9.23
2023-03-10T01:19:04.223Z,9.41
2023-03-10T01:21:34.132Z,9.06
2023-03-10T01:24:04.048Z,9.23
2023-03-10T01:26:32.846Z,9.34
2023-03-10T01:29:02.742Z,9.33
2023-03-10T01:31:31.557Z,9.59
2023-03-10T01:34:00.250Z,9.59
2023-03-10T01:36:29.212Z,9.49
2023-03-10T01:39:01.077Z,9.72
2023-03-10T01:41:29.485Z,9.65
2023-03-10T01:43:59.373Z,9.41
2023-03-10T01:46:49.531Z,9.45
2023-03-10T01:49:24.421Z,9.69
2023-03-10T01:51:56.671Z,9.86
2023-03-10T01:54:30.568Z,9.89
2023-03-10T01:57:00.087Z,10.04
2023-03-10T01:59:30.744Z,10.03
2023-03-10T02:02:02.948Z,10.13
2023-03-10T02:04:38.865Z,10.19
2023-03-10T02:07:09.599Z,10.23
2023-03-10T02:09:43.189Z,10.48
2023-03-10T02:12:14.331Z,10.53
2023-03-10T02:14:46.259Z,10.54
2023-03-10T02:17:19.769Z,10.43
2023-03-10T02:20:26.668Z,10.50
2023-03-10T02:22:55.251Z,10.48
2023-03-10T02:25:34.176Z,10.47
2023-03-10T02:28:05.115Z,10.54
2023-03-10T02:30:37.192Z,10.44
2023-03-10T02:33:09.117Z,10.34
2023-03-10T02:35:38.180Z,10.39
2023-03-10T02:38:07.042Z,10.42
2023-03-10T02:40:38.015Z,10.39
2023-03-10T02:43:15.155Z,10.44
2023-03-10T02:45:46.941Z,10.52
2023-03-10T02:48:20.187Z,10.49
2023-03-10T02:50:49.475Z,10.62
2023-03-10T02:53:20.006Z,10.62
2023-03-10T02:55:48.520Z,10.61
2023-03-10T02:58:19.046Z,10.58
2023-03-10T03:00:49.478Z,10.69
2023-03-10T03:03:20.400Z,10.52
2023-03-10T03:05:49.503Z,10.39
2023-03-10T03:08:18.605Z,10.41
2023-03-10T03:10:47.762Z,10.24
2023-03-10T03:13:18.220Z,10.31
2023-03-10T03:15:46.978Z,10.37
2023-03-10T03:18:15.458Z,10.28
2023-03-10T03:20:44.282Z,10.16
2023-03-10T03:23:12.836Z,10.26
2023-03-10T03:25:43.368Z,10.21
2023-03-10T03:28:13.715Z,10.21
2023-03-10T03:30:46.180Z,10.26
2023-03-10T03:33:14.652Z,10.30
2023-03-10T03:35:45.153Z,10.23
2023-03-10T03:38:14.014Z,10.27
2023-03-10T03:40:42.452Z,10.40
2023-03-10T03:43:13.990Z,10.33
2023-03-10T03:45:43.429Z,10.25
2023-03-10T03:48:14.996Z,10.14
2023-03-10T03:50:43.229Z,10.39
2023-03-10T03:53:13.400Z,10.32
2023-03-10T03:55:41.988Z,10.35
2023-03-10T03:58:10.359Z,10.39
2023-03-10T04:00:40.506Z,10.31
2023-03-10T04:03:11.379Z,10.25
2023-03-10T04:05:39.720Z,10.19
2023-03-10T04:08:08.910Z,10.25
2023-03-10T04:10:37.815Z,10.08
2023-03-10T04:13:06.561Z,10.04
2023-03-10T04:15:35.655Z,10.05
2023-03-10T04:18:04.241Z,10.06
2023-03-10T04:20:33.943Z,10.03
2023-03-10T04:23:02.305Z,10.11
2023-03-10T04:25:30.712Z,9.97
2023-03-10T04:27:59.314Z,10.07
2023-03-10T04:30:30.706Z,10.16
2023-03-10T04:33:00.562Z,9.98
2023-03-10T04:35:29.572Z,10.03
2023-03-10T04:37:59.689Z,9.97
2023-03-10T04:40:27.853Z,9.98
2023-03-10T04:42:56.971Z,9.94
2023-03-10T04:45:25.383Z,9.74
2023-03-10T04:47:53.750Z,10.03
2023-03-10T04:50:21.863Z,9.80
2023-03-10T04:52:50.807Z,10.04
2023-03-10T04:55:20.508Z,10.10
2023-03-10T04:57:48.996Z,10.06
2023-03-10T05:00:17.756Z,9.99
2023-03-10T05:02:45.837Z,9.79
2023-03-10T05:05:13.844Z,9.76
2023-03-10T05:07:42.390Z,9.72
2023-03-10T05:10:12.314Z,9.73
2023-03-10T05:12:42.738Z,9.71
2023-03-10T05:15:12.033Z,9.76
2023-03-10T05:17:40.702Z,9.79
2023-03-10T05:20:10.465Z,9.89
2023-03-10T05:22:39.576Z,9.87
2023-03-10T05:25:09.339Z,9.69
2023-03-10T05:27:39.454Z,9.75
2023-03-10T05:30:11.743Z,9.71
2023-03-10T05:32:40.388Z,9.85
2023-03-10T05:35:09.356Z,9.82
2023-03-10T05:37:39.488Z,9.95
2023-03-10T05:40:10.054Z,9.83
2023-03-10T05:42:38.538Z,9.94
2023-03-10T05:45:10.024Z,9.99
2023-03-10T05:47:39.017Z,9.94
2023-03-10T05:50:08.116Z,10.04
2023-03-10T05:52:38.499Z,10.02
2023-03-10T05:55:09.476Z,9.81
2023-03-10T05:57:37.539Z,9.95
2023-03-10T06:00:11.152Z,10.04
2023-03-10T06:02:39.526Z,10.01
2023-03-10T06:05:11.313Z,10.07
2023-03-10T06:07:40.134Z,10.15
2023-03-10T06:10:09.783Z,9.90
2023-03-10T06:12:38.861Z,10.07
2023-03-10T06:15:10.722Z,10.16
2023-03-10T06:17:39.618Z,10.13
2023-03-10T06:20:09.558Z,10.31
2023-03-10T06:22:42.179Z,10.20
2023-03-10T06:25:12.120Z,10.07
2023-03-10T06:27:40.471Z,10.30
2023-03-10T06:30:12.685Z,10.50
2023-03-10T06:32:42.342Z,10.31
2023-03-10T06:35:14.921Z,10.59
2023-03-10T06:37:43.780Z,10.65
2023-03-10T06:40:18.572Z,10.37
2023-03-10T06:42:47.224Z,10.28
2023-03-10T06:45:18.908Z,10.23
2023-03-10T06:47:47.220Z,10.29
2023-03-10T06:50:15.550Z,9.90
2023-03-10T06:52:44.316Z,10.07
2023-03-10T06:55:13.793Z,10.39
2023-03-10T06:57:42.218Z,10.28
2023-03-10T07:00:16.250Z,10.30
2023-03-10T07:02:46.319Z,10.34
2023-03-10T07:05:15.506Z,10.55
2023-03-10T07:07:47.601Z,10.68
2023-03-10T07:10:17.221Z,10.70
2023-03-10T07:12:46.071Z,10.91
2023-03-10T07:15:15.237Z,10.50
2023-03-10T07:17:43.805Z,10.55
2023-03-10T07:20:15.113Z,10.34
2023-03-10T07:22:43.437Z,10.37
2023-03-10T07:25:11.982Z,10.50
2023-03-10T07:27:40.693Z,10.48
2023-03-10T07:30:10.584Z,10.73
2023-03-10T07:32:39.148Z,10.66
2023-03-10T07:35:09.290Z,10.76
2023-03-10T07:37:41.750Z,10.80
2023-03-10T07:40:12.906Z,11.10
2023-03-10T07:42:40.889Z,11.01
2023-03-10T07:45:10.435Z,11.30
2023-03-10T07:47:39.594Z,11.45
2023-03-10T07:50:09.315Z,11.55
2023-03-10T07:52:48.171Z,11.85
2023-03-10T07:55:28.516Z,11.81
2023-03-10T07:57:58.794Z,11.53
2023-03-10T08:00:28.481Z,11.77
2023-03-10T08:02:56.565Z,11.84
2023-03-10T08:05:25.689Z,11.96
2023-03-10T08:07:57.278Z,11.55
2023-03-10T08:10:25.897Z,11.56
2023-03-10T08:12:56.429Z,11.42
2023-03-10T08:15:27.127Z,11.56
2023-03-10T08:17:55.829Z,11.92
2023-03-10T08:20:27.810Z,11.99
